Time;durP1;ratioP1;P1;durP2;ratioP2;P2;SDS_P1;SDS_P2;PMS_P1;PMS_P2;Temp;Humidity;BMP_temperature;BMP_pressure;BME280_temperature;BME280_humidity;BME280_pressure;Samples;Min_cycle;Max_cycle;Signal;HPM_P1;HPM_P2
2021/05/06 00:33:31;;;;;;;;;;;3.70;96.80;;;;;;5114731;28;20407;-71
2021/05/06 00:35:56;;;;;;;;;;;3.60;96.70;;;;;;5116708;28;19943;-71
2021/05/06 00:38:25;;;;;;;;;;;3.50;96.80;;;;;;5116708;28;19912;-72
2021/05/06 01:04:35;;;;;;;;;;;3.00;96.80;;;;;;5101794;28;19912;-70
2021/05/06 01:12:33;;;;;;;;;;;3.00;96.90;;;;;;5080615;28;19913;-70
2021/05/06 01:14:59;;;;;;;;;;;3.00;97.00;;;;;;5115214;28;19989;-70
2021/05/06 01:17:24;;;;;;;;;;;3.00;96.80;;;;;;5089372;28;19916;-70
2021/05/06 01:19:50;;;;;;;;;;;3.00;96.80;;;;;;5112841;28;19959;-70
2021/05/06 01:22:15;;;;;;;;;;;2.90;96.90;;;;;;5115454;28;19919;-72
2021/05/06 01:24:42;;;;;;;;;;;2.90;96.80;;;;;;5109062;28;20244;-71
2021/05/06 01:27:26;;;;;;;;;;;2.80;96.90;;;;;;5119509;28;19912;-71
2021/05/06 01:32:46;;;;;;;;;;;2.70;96.80;;;;;;5085434;28;19951;-72
2021/05/06 01:35:21;;;;;;;;;;;2.70;96.90;;;;;;5111028;28;20002;-71
2021/05/06 01:43:32;;;;;;;;;;;2.80;97.00;;;;;;5077833;28;19956;-72
2021/05/06 01:48:40;;;;;;;;;;;2.90;97.40;;;;;;5097382;28;19912;-72
2021/05/06 01:57:29;;;;;;;;;;;2.80;97.20;;;;;;5096493;28;19912;-72
2021/05/06 01:59:34;;;;;;;;;;;2.80;97.10;;;;;;5105525;28;19962;-71
2021/05/06 02:02:00;;;;;;;;;;;2.80;97.10;;;;;;5078690;28;19916;-71
2021/05/06 02:04:25;;;;;;;;;;;2.90;97.20;;;;;;5101273;28;19916;-70
2021/05/06 02:06:51;;;;;;;;;;;3.00;97.30;;;;;;5114530;28;20010;-70
2021/05/06 02:09:16;;;;;;;;;;;3.10;97.30;;;;;;5104519;28;20277;-71
2021/05/06 02:11:42;;;;;;;;;;;3.20;97.40;;;;;;5113206;28;20177;-71
2021/05/06 02:14:09;;;;;;;;;;;3.30;97.30;;;;;;5103556;28;19919;-71
2021/05/06 02:16:37;;;;;;;;;;;3.40;97.40;;;;;;5100880;28;19923;-70
2021/05/06 02:19:04;;;;;;;;;;;3.50;97.70;;;;;;5110020;28;19919;-71
2021/05/06 02:21:30;;;;;;;;;;;3.60;97.50;;;;;;5113799;28;20311;-70
2021/05/06 02:23:55;;;;;;;;;;;3.60;97.50;;;;;;5097420;28;19912;-71
2021/05/06 02:26:21;;;;;;;;;;;3.70;97.50;;;;;;5112290;28;20044;-71
2021/05/06 02:28:46;;;;;;;;;;;3.60;97.20;;;;;;5104516;28;19912;-71
2021/05/06 02:31:14;;;;;;;;;;;3.50;97.30;;;;;;5111581;28;19911;-71
2021/05/06 02:33:43;;;;;;;;;;;3.40;97.10;;;;;;5097498;28;19958;-71
2021/05/06 02:36:08;;;;;;;;;;;3.20;97.10;;;;;;5107217;28;20203;-71
2021/05/06 02:38:34;;;;;;;;;;;3.10;97.20;;;;;;5108578;28;19912;-71
2021/05/06 02:40:59;;;;;;;;;;;2.90;97.10;;;;;;5114979;28;19924;-70
2021/05/06 02:43:25;;;;;;;;;;;2.80;97.20;;;;;;5114083;28;20019;-71
2021/05/06 02:45:50;;;;;;;;;;;2.80;97.00;;;;;;5104543;28;19966;-71
2021/05/06 02:48:16;;;;;;;;;;;2.70;97.10;;;;;;5113645;28;19912;-70
2021/05/06 02:50:46;;;;;;;;;;;2.70;97.30;;;;;;5114883;28;20227;-71
2021/05/06 02:53:16;;;;;;;;;;;2.60;97.20;;;;;;5112793;28;19916;-71
2021/05/06 02:56:01;;;;;;;;;;;2.60;97.20;;;;;;5118924;28;19939;-70
2021/05/06 03:03:43;;;;;;;;;;;2.50;97.20;;;;;;5110672;28;20387;-72
2021/05/06 03:06:15;;;;;;;;;;;2.40;97.20;;;;;;5100917;28;19999;-71
2021/05/06 03:08:43;;;;;;;;;;;2.50;97.30;;;;;;5114778;28;20002;-71
2021/05/06 03:11:27;;;;;;;;;;;2.60;97.50;;;;;;5118158;28;19911;-72
2021/05/06 03:14:19;;;;;;;;;;;2.70;97.50;;;;;;5105067;28;19962;-71
2021/05/06 03:25:01;;;;;;;;;;;3.50;97.80;;;;;;5116811;28;19966;-71
2021/05/06 03:27:30;;;;;;;;;;;3.70;97.70;;;;;;5118741;28;20200;-72
2021/05/06 03:32:29;;;;;;;;;;;3.90;97.10;;;;;;5118167;28;20278;-72
2021/05/06 03:35:13;;;;;;;;;;;4.00;97.20;;;;;;5115153;28;20011;-71
2021/05/06 04:18:18;;;;;;;;;;;5.90;88.00;;;;;;5116600;28;19944;-72
2021/05/06 04:36:18;;;;;;;;;;;6.10;86.00;;;;;;5118027;28;19984;-72
2021/05/06 04:38:44;;;;;;;;;;;6.20;85.80;;;;;;5116684;28;19912;-71
2021/05/06 04:41:31;;;;;;;;;;;6.20;86.60;;;;;;5117004;28;20342;-72
2021/05/06 05:03:17;;;;;;;;;;;6.00;85.30;;;;;;5117683;28;20022;-72
2021/05/06 05:04:54;;;;;;;;;;;6.00;86.30;;;;;;5098280;28;19935;-70
2021/05/06 05:17:56;;;;;;;;;;;6.30;86.50;;;;;;5107937;28;20014;-70
2021/05/06 05:25:49;;;;;;;;;;;6.50;84.00;;;;;;5096952;28;19935;-72
2021/05/06 05:28:15;;;;;;;;;;;6.40;84.70;;;;;;5110228;28;19911;-70
2021/05/06 05:30:41;;;;;;;;;;;6.40;85.00;;;;;;5116923;28;20214;-71
2021/05/06 05:33:11;;;;;;;;;;;6.40;84.80;;;;;;5104677;28;19911;-70
2021/05/06 05:35:42;;;;;;;;;;;6.50;84.00;;;;;;5100268;28;20220;-71
2021/05/06 05:40:42;;;;;;;;;;;6.70;84.40;;;;;;5112454;28;20452;-71
2021/05/06 05:55:59;;;;;;;;;;;6.80;85.20;;;;;;5099592;28;19914;-71
2021/05/06 05:58:25;;;;;;;;;;;6.80;85.40;;;;;;5115385;28;20018;-71
2021/05/06 06:00:50;;;;;;;;;;;6.70;85.90;;;;;;5115908;28;19915;-71
2021/05/06 06:03:19;;;;;;;;;;;6.80;86.00;;;;;;5101394;28;20216;-71
2021/05/06 06:05:44;;;;;;;;;;;7.00;85.90;;;;;;5097386;28;20323;-70
2021/05/06 06:08:10;;;;;;;;;;;7.10;85.10;;;;;;5112968;28;19972;-71
2021/05/06 06:10:35;;;;;;;;;;;7.10;85.10;;;;;;5116308;28;20019;-72
2021/05/06 06:13:01;;;;;;;;;;;7.10;85.30;;;;;;5116374;28;19912;-71
2021/05/06 06:17:59;;;;;;;;;;;7.20;85.50;;;;;;5116026;28;19951;-72
2021/05/06 06:20:27;;;;;;;;;;;7.30;85.30;;;;;;5111895;28;19920;-71
2021/05/06 06:22:53;;;;;;;;;;;7.00;85.80;;;;;;5108048;28;19954;-70
2021/05/06 06:25:18;;;;;;;;;;;7.00;86.00;;;;;;5114619;28;19954;-72
2021/05/06 06:27:44;;;;;;;;;;;7.00;86.00;;;;;;5101354;28;19912;-71
2021/05/06 06:30:11;;;;;;;;;;;7.10;85.70;;;;;;5104026;28;19915;-71
2021/05/06 06:32:37;;;;;;;;;;;7.20;85.50;;;;;;5107623;28;20228;-72
2021/05/06 06:35:03;;;;;;;;;;;7.20;85.30;;;;;;5119785;28;19916;-71
2021/05/06 06:37:28;;;;;;;;;;;7.40;85.00;;;;;;5118888;28;19916;-71
2021/05/06 06:39:54;;;;;;;;;;;7.50;85.00;;;;;;5119570;28;19912;-71
2021/05/06 06:42:19;;;;;;;;;;;7.80;83.60;;;;;;5120165;28;20319;-71
2021/05/06 06:44:45;;;;;;;;;;;7.80;82.60;;;;;;5120175;28;20214;-71
2021/05/06 06:47:11;;;;;;;;;;;8.00;83.10;;;;;;5118521;28;19919;-71
2021/05/06 06:49:39;;;;;;;;;;;8.20;82.40;;;;;;5102167;28;20006;-71
2021/05/06 06:52:06;;;;;;;;;;;8.10;81.50;;;;;;5100669;28;20262;-72
2021/05/06 06:54:32;;;;;;;;;;;8.00;82.60;;;;;;5099419;28;19912;-72
2021/05/06 06:56:58;;;;;;;;;;;8.20;83.20;;;;;;5100657;28;19911;-72
2021/05/06 06:59:23;;;;;;;;;;;8.10;81.70;;;;;;5099360;28;20065;-72
2021/05/06 07:01:49;;;;;;;;;;;8.30;81.70;;;;;;5112850;28;19911;-71
2021/05/06 07:04:14;;;;;;;;;;;8.50;82.00;;;;;;5100284;28;19920;-71
2021/05/06 07:06:40;;;;;;;;;;;8.70;80.70;;;;;;5117328;28;20029;-72
2021/05/06 07:09:08;;;;;;;;;;;8.80;79.80;;;;;;5119398;28;19912;-72
2021/05/06 07:11:34;;;;;;;;;;;8.70;80.30;;;;;;5107108;28;19931;-71
2021/05/06 07:13:59;;;;;;;;;;;8.80;80.30;;;;;;5106016;28;19920;-71
2021/05/06 07:16:25;;;;;;;;;;;9.20;80.20;;;;;;5104873;28;20409;-71
2021/05/06 07:18:50;;;;;;;;;;;9.40;78.70;;;;;;5108129;28;19915;-70
2021/05/06 07:21:16;;;;;;;;;;;9.30;78.90;;;;;;5105548;28;19916;-70
2021/05/06 07:23:41;;;;;;;;;;;9.30;78.60;;;;;;5102467;28;19919;-69
2021/05/06 07:26:07;;;;;;;;;;;9.20;79.20;;;;;;5108600;28;19912;-70
2021/05/06 07:28:37;;;;;;;;;;;9.20;78.60;;;;;;5106943;28;19912;-70
2021/05/06 07:31:03;;;;;;;;;;;9.20;78.20;;;;;;5108133;28;20411;-72
2021/05/06 07:33:30;;;;;;;;;;;9.20;78.30;;;;;;5107841;28;19924;-72
2021/05/06 07:35:56;;;;;;;;;;;9.00;77.70;;;;;;5100019;28;19918;-72
2021/05/06 07:38:22;;;;;;;;;;;9.10;78.00;;;;;;5101614;28;19912;-72
2021/05/06 07:40:48;;;;;;;;;;;9.20;78.70;;;;;;5100330;28;19976;-72
2021/05/06 07:43:13;;;;;;;;;;;9.10;78.20;;;;;;5106653;28;19919;-71
2021/05/06 07:45:39;;;;;;;;;;;9.10;79.20;;;;;;5103523;28;20052;-71
2021/05/06 07:48:04;;;;;;;;;;;8.90;80.20;;;;;;5101532;28;20228;-70
2021/05/06 07:50:30;;;;;;;;;;;8.80;79.40;;;;;;5087197;28;19915;-71
2021/05/06 07:53:04;;;;;;;;;;;8.60;80.70;;;;;;5104039;28;19972;-71
2021/05/06 07:55:30;;;;;;;;;;;8.60;81.30;;;;;;5111272;28;20002;-71
2021/05/06 07:57:56;;;;;;;;;;;8.60;81.10;;;;;;5118429;28;19918;-72
2021/05/06 08:00:22;;;;;;;;;;;8.60;81.30;;;;;;5118777;28;20211;-70
2021/05/06 08:02:49;;;;;;;;;;;8.60;81.90;;;;;;5100321;28;19912;-71
2021/05/06 08:05:15;;;;;;;;;;;8.50;82.30;;;;;;5118787;28;19908;-72
2021/05/06 08:07:43;;;;;;;;;;;8.20;83.30;;;;;;5117365;28;19912;-71
2021/05/06 08:10:09;;;;;;;;;;;8.00;84.80;;;;;;5118577;28;19914;-71
2021/05/06 08:12:35;;;;;;;;;;;7.90;85.40;;;;;;5118474;28;19915;-72
2021/05/06 08:15:02;;;;;;;;;;;7.80;85.40;;;;;;5099627;28;19923;-71
2021/05/06 08:17:28;;;;;;;;;;;7.70;86.20;;;;;;5118615;28;19961;-71
2021/05/06 08:19:54;;;;;;;;;;;7.80;86.20;;;;;;5118226;28;19912;-71
2021/05/06 08:22:19;;;;;;;;;;;7.80;86.80;;;;;;5099006;28;20002;-71
2021/05/06 08:24:45;;;;;;;;;;;7.80;86.90;;;;;;5117193;28;20355;-71
2021/05/06 08:27:10;;;;;;;;;;;7.70;87.20;;;;;;5097678;28;19920;-71
2021/05/06 08:29:36;;;;;;;;;;;7.50;88.50;;;;;;5097885;28;19976;-71
2021/05/06 08:32:02;;;;;;;;;;;7.30;90.40;;;;;;5097777;28;19995;-71
2021/05/06 08:34:27;;;;;;;;;;;7.20;90.90;;;;;;5079791;28;19908;-70
2021/05/06 08:36:53;;;;;;;;;;;7.20;91.40;;;;;;5096451;28;20300;-71
2021/05/06 08:39:18;;;;;;;;;;;7.20;91.90;;;;;;5097578;28;19915;-72
2021/05/06 08:41:44;;;;;;;;;;;7.20;92.80;;;;;;5115306;28;19916;-72
2021/05/06 08:44:12;;;;;;;;;;;7.30;92.70;;;;;;5117198;28;19969;-72
2021/05/06 08:46:45;;;;;;;;;;;7.20;92.90;;;;;;5117414;28;20188;-71
2021/05/06 08:49:11;;;;;;;;;;;7.20;93.00;;;;;;5117222;28;19994;-72
2021/05/06 08:51:37;;;;;;;;;;;7.00;93.60;;;;;;5115986;28;20272;-72
2021/05/06 08:54:03;;;;;;;;;;;6.90;94.40;;;;;;5117891;28;19964;-71
2021/05/06 08:56:28;;;;;;;;;;;6.80;94.40;;;;;;5117354;28;19912;-71
2021/05/06 08:58:54;;;;;;;;;;;6.80;95.30;;;;;;5117674;28;19908;-71
2021/05/06 09:01:20;;;;;;;;;;;6.80;95.20;;;;;;5117673;28;19911;-71
2021/05/06 09:03:45;;;;;;;;;;;6.70;95.40;;;;;;5099378;28;19935;-71
2021/05/06 09:06:16;;;;;;;;;;;6.60;95.20;;;;;;5096437;28;19916;-71
2021/05/06 09:08:46;;;;;;;;;;;6.50;95.50;;;;;;5097018;28;20006;-71
2021/05/06 09:11:12;;;;;;;;;;;6.50;95.90;;;;;;5096928;28;20079;-71
2021/05/06 09:13:38;;;;;;;;;;;6.50;95.60;;;;;;5096805;28;19908;-71
2021/05/06 09:16:05;;;;;;;;;;;6.70;96.20;;;;;;5115435;27;19920;-71
2021/05/06 09:18:41;;;;;;;;;;;6.70;95.90;;;;;;5103687;28;19939;-71
2021/05/06 09:21:25;;;;;;;;;;;6.80;96.20;;;;;;5078996;28;19916;-71
2021/05/06 09:24:06;;;;;;;;;;;6.80;96.10;;;;;;5106554;28;19963;-71
2021/05/06 09:26:32;;;;;;;;;;;6.90;96.60;;;;;;5109629;28;19937;-71
2021/05/06 09:28:58;;;;;;;;;;;6.90;95.70;;;;;;5108896;28;19916;-71
2021/05/06 09:31:24;;;;;;;;;;;6.90;95.80;;;;;;5115310;28;19916;-71
2021/05/06 09:33:50;;;;;;;;;;;7.10;96.20;;;;;;5117004;28;19915;-71
2021/05/06 09:36:18;;;;;;;;;;;7.10;95.50;;;;;;5094333;28;19912;-71
2021/05/06 09:38:46;;;;;;;;;;;7.10;95.50;;;;;;5096400;28;19915;-72
2021/05/06 09:41:12;;;;;;;;;;;7.10;95.60;;;;;;5097686;28;19912;-71
2021/05/06 09:43:40;;;;;;;;;;;7.10;95.80;;;;;;5108635;28;19920;-71
2021/05/06 09:46:24;;;;;;;;;;;7.10;95.40;;;;;;5096313;28;19916;-70
2021/05/06 09:48:59;;;;;;;;;;;7.00;95.70;;;;;;5114956;28;20045;-71
2021/05/06 09:51:29;;;;;;;;;;;6.90;96.10;;;;;;5096222;28;19911;-71
2021/05/06 09:53:56;;;;;;;;;;;6.90;95.70;;;;;;5115807;28;20316;-71
2021/05/06 09:56:24;;;;;;;;;;;7.00;95.20;;;;;;5116622;28;19908;-71
2021/05/06 09:58:49;;;;;;;;;;;6.90;95.00;;;;;;5114853;28;19916;-71
2021/05/06 10:01:15;;;;;;;;;;;6.80;95.60;;;;;;5108840;28;20259;-70
2021/05/06 10:03:40;;;;;;;;;;;6.90;95.30;;;;;;5113449;28;19912;-71
2021/05/06 10:06:10;;;;;;;;;;;6.90;95.40;;;;;;5115613;28;19907;-71
2021/05/06 10:08:39;;;;;;;;;;;7.00;95.90;;;;;;5077876;28;19953;-71
2021/05/06 10:11:11;;;;;;;;;;;7.10;95.70;;;;;;5100702;28;19918;-71
2021/05/06 10:13:44;;;;;;;;;;;7.10;95.30;;;;;;5096648;28;19962;-70
2021/05/06 10:16:10;;;;;;;;;;;7.10;95.60;;;;;;5095750;28;19960;-71
2021/05/06 10:18:40;;;;;;;;;;;7.30;95.40;;;;;;5115753;28;20273;-72
2021/05/06 10:21:06;;;;;;;;;;;7.50;95.60;;;;;;5114664;28;20379;-72
2021/05/06 10:23:31;;;;;;;;;;;7.50;95.00;;;;;;5096285;28;20285;-72
2021/05/06 10:25:58;;;;;;;;;;;7.30;95.00;;;;;;5097415;28;19962;-72
2021/05/06 10:28:25;;;;;;;;;;;7.20;95.50;;;;;;5108609;28;20236;-71
2021/05/06 10:30:51;;;;;;;;;;;7.20;95.00;;;;;;5078009;28;19950;-71
2021/05/06 10:33:20;;;;;;;;;;;7.20;95.30;;;;;;5105992;28;19915;-71
2021/05/06 10:35:45;;;;;;;;;;;7.30;95.40;;;;;;5116360;28;20268;-72
2021/05/06 10:38:11;;;;;;;;;;;7.40;95.00;;;;;;5102013;28;19951;-72
2021/05/06 10:40:38;;;;;;;;;;;7.40;94.60;;;;;;5078389;28;19955;-71
2021/05/06 10:43:26;;;;;;;;;;;7.50;95.10;;;;;;5115400;28;19915;-72
2021/05/06 10:45:54;;;;;;;;;;;7.70;95.10;;;;;;5096189;28;19935;-72
2021/05/06 10:48:20;;;;;;;;;;;8.00;94.50;;;;;;5116188;28;19912;-72
2021/05/06 10:50:45;;;;;;;;;;;8.00;93.70;;;;;;5115186;28;19998;-72
2021/05/06 10:53:24;;;;;;;;;;;8.10;93.20;;;;;;5114225;28;19914;-71
2021/05/06 10:55:50;;;;;;;;;;;8.00;93.00;;;;;;5102596;28;19912;-71
2021/05/06 10:58:22;;;;;;;;;;;7.90;92.70;;;;;;5095457;28;19912;-72
2021/05/06 11:01:15;;;;;;;;;;;8.00;92.70;;;;;;5078911;28;20425;-71
2021/05/06 11:03:41;;;;;;;;;;;7.90;92.70;;;;;;5077605;28;19912;-70
2021/05/06 11:06:07;;;;;;;;;;;7.80;93.20;;;;;;5097340;28;19916;-70
2021/05/06 11:08:35;;;;;;;;;;;7.90;93.90;;;;;;5088367;28;19927;-68
2021/05/06 11:11:02;;;;;;;;;;;8.00;94.10;;;;;;5105855;28;19931;-69
2021/05/06 11:13:47;;;;;;;;;;;7.90;93.80;;;;;;5114923;28;19908;-69
2021/05/06 11:16:19;;;;;;;;;;;7.70;94.00;;;;;;5091256;28;19927;-69
2021/05/06 11:18:48;;;;;;;;;;;7.70;94.80;;;;;;5115406;28;19912;-69
2021/05/06 11:21:30;;;;;;;;;;;7.60;94.80;;;;;;5112665;28;20084;-70
2021/05/06 11:24:14;;;;;;;;;;;7.60;94.80;;;;;;5110829;28;20003;-69
2021/05/06 11:26:58;;;;;;;;;;;7.70;94.90;;;;;;5099821;28;19961;-69
2021/05/06 11:29:27;;;;;;;;;;;7.90;95.40;;;;;;5107539;28;19926;-69
2021/05/06 11:31:54;;;;;;;;;;;8.10;95.10;;;;;;5113357;28;19998;-69
2021/05/06 11:34:49;;;;;;;;;;;8.10;94.90;;;;;;5115094;28;19916;-69
2021/05/06 11:37:16;;;;;;;;;;;8.00;94.30;;;;;;5084302;28;19945;-69
2021/05/06 11:39:45;;;;;;;;;;;8.00;94.50;;;;;;5094227;28;19994;-69
2021/05/06 11:42:11;;;;;;;;;;;8.10;94.70;;;;;;5100951;28;19919;-69
2021/05/06 11:44:36;;;;;;;;;;;8.10;94.70;;;;;;5107530;28;19917;-69
2021/05/06 11:47:02;;;;;;;;;;;8.20;94.90;;;;;;5118375;27;20006;-68
2021/05/06 11:49:27;;;;;;;;;;;8.20;95.10;;;;;;5103481;28;19971;-69
2021/05/06 11:51:53;;;;;;;;;;;8.30;95.00;;;;;;5097031;28;20301;-69
2021/05/06 11:54:20;;;;;;;;;;;8.40;94.70;;;;;;5108123;28;20262;-69
2021/05/06 11:56:57;;;;;;;;;;;8.50;95.50;;;;;;5114393;28;19939;-69
2021/05/06 11:59:24;;;;;;;;;;;8.60;94.80;;;;;;5106277;28;19912;-69
2021/05/06 12:01:50;;;;;;;;;;;8.40;95.00;;;;;;5122971;27;19916;-68
2021/05/06 12:04:26;;;;;;;;;;;8.70;95.90;;;;;;5118012;27;19912;-69
2021/05/06 12:06:52;;;;;;;;;;;8.90;95.20;;;;;;5095602;28;20007;-69
2021/05/06 12:09:22;;;;;;;;;;;9.00;95.00;;;;;;5106016;28;20276;-69
2021/05/06 12:11:48;;;;;;;;;;;9.10;94.60;;;;;;5108319;28;20450;-69
2021/05/06 12:14:14;;;;;;;;;;;8.80;93.70;;;;;;5107823;28;19990;-69
2021/05/06 12:16:40;;;;;;;;;;;8.70;93.50;;;;;;5105839;28;20224;-69
2021/05/06 12:19:09;;;;;;;;;;;8.60;93.80;;;;;;5104888;28;19916;-68
2021/05/06 12:21:41;;;;;;;;;;;8.40;93.80;;;;;;5096745;28;19963;-69
2021/05/06 12:24:08;;;;;;;;;;;8.20;94.40;;;;;;5080886;28;19912;-69
2021/05/06 12:26:34;;;;;;;;;;;8.10;96.00;;;;;;5097808;28;19912;-69
2021/05/06 12:28:59;;;;;;;;;;;7.90;95.30;;;;;;5112859;28;19912;-69
2021/05/06 12:31:26;;;;;;;;;;;7.80;96.00;;;;;;5114401;28;19923;-68
2021/05/06 12:33:51;;;;;;;;;;;7.80;96.20;;;;;;5111709;28;19908;-69
2021/05/06 12:36:17;;;;;;;;;;;7.70;96.40;;;;;;5097226;28;20216;-69
2021/05/06 12:38:43;;;;;;;;;;;7.60;96.00;;;;;;5109430;28;19908;-69
2021/05/06 12:41:09;;;;;;;;;;;7.40;96.60;;;;;;5086071;28;19916;-68
2021/05/06 12:43:43;;;;;;;;;;;7.40;96.00;;;;;;5116071;28;19911;-69
2021/05/06 12:46:10;;;;;;;;;;;7.30;96.70;;;;;;5097642;28;20254;-69
2021/05/06 12:48:39;;;;;;;;;;;7.30;96.50;;;;;;5096841;28;19912;-69
2021/05/06 12:51:06;;;;;;;;;;;7.30;95.80;;;;;;5097234;28;19962;-69
2021/05/06 12:53:32;;;;;;;;;;;7.30;96.30;;;;;;5080025;28;19919;-69
2021/05/06 12:55:58;;;;;;;;;;;7.30;96.80;;;;;;5101695;28;20212;-69
2021/05/06 12:58:28;;;;;;;;;;;7.20;96.50;;;;;;5090540;28;20564;-70
2021/05/06 13:00:55;;;;;;;;;;;7.20;97.40;;;;;;5106477;28;20011;-68
2021/05/06 13:03:30;;;;;;;;;;;7.20;97.10;;;;;;5097468;28;19965;-68
2021/05/06 13:06:02;;;;;;;;;;;7.10;96.50;;;;;;5108517;28;20327;-68
2021/05/06 13:08:34;;;;;;;;;;;7.20;96.70;;;;;;5119463;27;19912;-69
2021/05/06 13:11:02;;;;;;;;;;;7.20;96.80;;;;;;5107444;28;19916;-69
2021/05/06 13:13:45;;;;;;;;;;;7.10;96.60;;;;;;5109038;28;19912;-68
2021/05/06 13:16:30;;;;;;;;;;;7.10;97.40;;;;;;5107805;28;20396;-68
2021/05/06 13:19:00;;;;;;;;;;;7.00;97.00;;;;;;5081649;28;19919;-68
2021/05/06 13:21:25;;;;;;;;;;;6.90;96.40;;;;;;5111485;28;20375;-68
2021/05/06 13:23:56;;;;;;;;;;;6.90;96.50;;;;;;5116376;28;19911;-68
2021/05/06 13:26:33;;;;;;;;;;;6.90;96.50;;;;;;5113384;28;20591;-68
2021/05/06 13:29:00;;;;;;;;;;;6.80;96.70;;;;;;5113343;28;19918;-68
2021/05/06 13:31:31;;;;;;;;;;;6.80;96.30;;;;;;5087752;28;20262;-67
2021/05/06 13:34:17;;;;;;;;;;;6.70;96.40;;;;;;5114157;28;19912;-68
2021/05/06 13:36:44;;;;;;;;;;;6.60;96.30;;;;;;5091148;28;20006;-69
2021/05/06 13:39:11;;;;;;;;;;;6.50;97.00;;;;;;5111469;28;19918;-67
2021/05/06 13:41:44;;;;;;;;;;;6.50;97.20;;;;;;5097352;28;20207;-68
2021/05/06 13:44:12;;;;;;;;;;;6.50;97.50;;;;;;5096124;28;19993;-68
2021/05/06 13:46:55;;;;;;;;;;;6.40;96.60;;;;;;5092209;28;19920;-70
2021/05/06 13:49:21;;;;;;;;;;;6.40;96.50;;;;;;5102509;28;19996;-69
2021/05/06 13:51:46;;;;;;;;;;;6.40;97.50;;;;;;5103372;28;20008;-69
2021/05/06 13:54:12;;;;;;;;;;;6.30;96.20;;;;;;5106731;28;19927;-70
2021/05/06 13:56:37;;;;;;;;;;;6.30;96.60;;;;;;5106428;28;19980;-68
2021/05/06 13:59:03;;;;;;;;;;;6.30;96.50;;;;;;5098238;28;20186;-69
2021/05/06 14:01:29;;;;;;;;;;;6.30;96.70;;;;;;5089311;28;19925;-70
2021/05/06 14:03:56;;;;;;;;;;;6.30;96.70;;;;;;5106575;28;19912;-70
2021/05/06 14:06:22;;;;;;;;;;;6.30;97.20;;;;;;5114419;28;19998;-69
2021/05/06 14:08:47;;;;;;;;;;;6.40;96.20;;;;;;5115860;28;20282;-70
2021/05/06 14:11:13;;;;;;;;;;;6.40;96.90;;;;;;5113689;28;19920;-70
2021/05/06 14:13:40;;;;;;;;;;;6.30;96.60;;;;;;5116195;28;19911;-69
2021/05/06 14:16:07;;;;;;;;;;;6.30;97.90;;;;;;5114648;28;20265;-69
2021/05/06 14:18:32;;;;;;;;;;;6.40;97.40;;;;;;5097246;28;19915;-68
2021/05/06 14:21:02;;;;;;;;;;;6.40;97.20;;;;;;5113695;28;19926;-68
2021/05/06 14:23:29;;;;;;;;;;;6.40;96.70;;;;;;5082211;28;19977;-68
2021/05/06 14:25:55;;;;;;;;;;;6.40;96.90;;;;;;5091742;28;19998;-69
2021/05/06 14:28:20;;;;;;;;;;;6.50;97.90;;;;;;5097565;28;19959;-69
2021/05/06 14:30:46;;;;;;;;;;;6.50;97.40;;;;;;5095826;28;19908;-68
2021/05/06 14:33:11;;;;;;;;;;;6.60;96.60;;;;;;5107803;28;19995;-68
2021/05/06 14:35:38;;;;;;;;;;;6.70;97.60;;;;;;5116138;28;20049;-68
2021/05/06 14:38:07;;;;;;;;;;;6.60;96.70;;;;;;5099461;28;19919;-68
2021/05/06 14:40:33;;;;;;;;;;;6.70;96.90;;;;;;5110012;28;19923;-68
2021/05/06 14:42:58;;;;;;;;;;;6.70;97.50;;;;;;5097508;28;19912;-68
2021/05/06 14:45:24;;;;;;;;;;;6.60;96.60;;;;;;5099373;28;19915;-69
2021/05/06 14:47:50;;;;;;;;;;;6.70;97.00;;;;;;5100764;28;19916;-69
2021/05/06 14:50:15;;;;;;;;;;;6.80;96.90;;;;;;5081852;28;20006;-68
2021/05/06 14:52:41;;;;;;;;;;;6.90;96.70;;;;;;5103869;28;19966;-68
2021/05/06 14:55:08;;;;;;;;;;;7.00;97.40;;;;;;5110836;28;19916;-68
2021/05/06 14:57:34;;;;;;;;;;;7.00;97.20;;;;;;5101206;28;20216;-68
2021/05/06 14:59:59;;;;;;;;;;;7.00;97.50;;;;;;5099504;28;19922;-69
2021/05/06 15:02:25;;;;;;;;;;;7.10;96.80;;;;;;5099165;28;20344;-68
2021/05/06 15:04:51;;;;;;;;;;;7.00;96.80;;;;;;5100578;28;19931;-69
2021/05/06 15:07:16;;;;;;;;;;;7.00;97.00;;;;;;5116934;28;19934;-69
2021/05/06 15:09:42;;;;;;;;;;;7.00;97.50;;;;;;5102287;28;19912;-69
2021/05/06 15:12:08;;;;;;;;;;;6.90;97.80;;;;;;5112639;28;20009;-68
2021/05/06 15:14:33;;;;;;;;;;;7.00;96.80;;;;;;5119115;28;20181;-69
2021/05/06 15:16:59;;;;;;;;;;;7.00;96.80;;;;;;5105850;28;19970;-70
2021/05/06 15:19:24;;;;;;;;;;;7.10;96.50;;;;;;5099538;28;19919;-69
2021/05/06 15:21:50;;;;;;;;;;;7.10;97.30;;;;;;5102213;28;19916;-69
2021/05/06 15:24:15;;;;;;;;;;;7.10;97.00;;;;;;5098924;28;20208;-69
2021/05/06 15:26:41;;;;;;;;;;;7.10;96.70;;;;;;5103446;28;19912;-68
2021/05/06 15:29:06;;;;;;;;;;;7.00;97.40;;;;;;5109731;28;19916;-70
2021/05/06 15:31:32;;;;;;;;;;;7.10;96.50;;;;;;5083348;28;19919;-69
2021/05/06 15:33:58;;;;;;;;;;;7.10;97.30;;;;;;5084975;28;19916;-69
2021/05/06 15:36:24;;;;;;;;;;;7.10;97.60;;;;;;5113486;28;19916;-69
2021/05/06 15:38:51;;;;;;;;;;;7.10;97.10;;;;;;5111702;28;19955;-71
2021/05/06 15:41:17;;;;;;;;;;;7.10;96.90;;;;;;5080594;28;19912;-69
2021/05/06 15:43:42;;;;;;;;;;;7.10;96.90;;;;;;5099780;28;19935;-70
2021/05/06 15:46:10;;;;;;;;;;;7.10;96.80;;;;;;5098732;28;19981;-69
2021/05/06 15:48:36;;;;;;;;;;;7.10;96.80;;;;;;5082387;28;19923;-69
2021/05/06 15:51:02;;;;;;;;;;;7.10;96.90;;;;;;5087981;28;20300;-69
2021/05/06 15:53:28;;;;;;;;;;;7.10;97.50;;;;;;5105395;28;20379;-69
2021/05/06 15:55:59;;;;;;;;;;;7.10;96.80;;;;;;5117584;28;19943;-69
2021/05/06 15:58:25;;;;;;;;;;;7.10;97.00;;;;;;5118146;28;19911;-69
2021/05/06 16:00:59;;;;;;;;;;;7.10;97.00;;;;;;5098660;28;19942;-70
2021/05/06 16:03:26;;;;;;;;;;;7.10;97.60;;;;;;5098245;28;19943;-70
2021/05/06 16:05:55;;;;;;;;;;;7.20;96.80;;;;;;5115629;28;19962;-69
2021/05/06 16:08:21;;;;;;;;;;;7.20;97.80;;;;;;5116466;28;20022;-70
2021/05/06 16:10:49;;;;;;;;;;;7.20;97.30;;;;;;5117867;28;20236;-69
2021/05/06 16:13:15;;;;;;;;;;;7.30;96.80;;;;;;5112130;28;19971;-69
2021/05/06 16:15:40;;;;;;;;;;;7.30;97.00;;;;;;5115957;28;20331;-69
2021/05/06 16:18:06;;;;;;;;;;;7.30;97.30;;;;;;5091334;28;19927;-69
2021/05/06 16:20:32;;;;;;;;;;;7.40;97.00;;;;;;5105300;28;20281;-69
2021/05/06 16:22:58;;;;;;;;;;;7.40;97.10;;;;;;5117013;28;19908;-69
2021/05/06 16:25:24;;;;;;;;;;;7.50;96.90;;;;;;5109453;28;19916;-70
2021/05/06 16:27:50;;;;;;;;;;;7.80;97.10;;;;;;5102890;28;20327;-69
2021/05/06 16:30:15;;;;;;;;;;;8.00;97.50;;;;;;5097833;28;20211;-69
2021/05/06 16:32:42;;;;;;;;;;;8.00;97.40;;;;;;5097246;28;20311;-68
2021/05/06 16:35:10;;;;;;;;;;;7.90;96.80;;;;;;5096671;28;19908;-68
2021/05/06 16:45:47;;;;;;;;;;;7.90;96.80;;;;;;5101952;28;19942;-68
2021/05/06 16:48:13;;;;;;;;;;;8.10;96.70;;;;;;5083001;28;20300;-70
2021/05/06 16:50:40;;;;;;;;;;;8.20;96.80;;;;;;5097291;28;19918;-68
2021/05/06 16:53:05;;;;;;;;;;;8.10;96.70;;;;;;5110008;28;19912;-70
2021/05/06 16:55:33;;;;;;;;;;;8.10;96.30;;;;;;5115100;28;20300;-70
2021/05/06 16:57:58;;;;;;;;;;;8.00;97.00;;;;;;5117672;28;19931;-70
2021/05/06 17:00:24;;;;;;;;;;;8.00;96.80;;;;;;5094731;28;20320;-69
2021/05/06 17:02:50;;;;;;;;;;;8.00;97.60;;;;;;5116787;28;19918;-70
2021/05/06 17:05:16;;;;;;;;;;;8.00;96.60;;;;;;5116148;28;20273;-70
2021/05/06 17:07:43;;;;;;;;;;;8.00;96.60;;;;;;5113600;28;19911;-69
2021/05/06 17:10:10;;;;;;;;;;;8.00;96.70;;;;;;5112118;28;19912;-69
2021/05/06 17:12:35;;;;;;;;;;;8.00;96.40;;;;;;5101017;27;19953;-69
2021/05/06 17:15:01;;;;;;;;;;;7.90;96.80;;;;;;5097630;28;20200;-69
2021/05/06 17:17:27;;;;;;;;;;;7.90;97.00;;;;;;5100888;28;20352;-69
2021/05/06 17:19:53;;;;;;;;;;;7.80;96.70;;;;;;5102972;28;19919;-71
2021/05/06 17:22:19;;;;;;;;;;;7.90;97.00;;;;;;5113029;28;19912;-71
2021/05/06 17:24:44;;;;;;;;;;;8.10;97.30;;;;;;5089124;28;19912;-70
2021/05/06 17:27:10;;;;;;;;;;;8.10;96.90;;;;;;5107764;28;19919;-70
2021/05/06 17:29:35;;;;;;;;;;;8.20;97.90;;;;;;5104951;28;20094;-70
2021/05/06 17:32:02;;;;;;;;;;;8.50;96.70;;;;;;5110187;28;19959;-69
2021/05/06 17:34:28;;;;;;;;;;;8.50;97.00;;;;;;5103511;27;19920;-70
2021/05/06 17:36:53;;;;;;;;;;;8.40;97.00;;;;;;5106540;27;19956;-69
2021/05/06 17:39:20;;;;;;;;;;;8.40;97.30;;;;;;5117694;27;20039;-69
2021/05/06 17:41:46;;;;;;;;;;;8.40;97.30;;;;;;5123728;27;19911;-69
2021/05/06 17:44:11;;;;;;;;;;;8.30;97.00;;;;;;5107532;28;19916;-69
2021/05/06 17:46:37;;;;;;;;;;;8.30;97.10;;;;;;5098972;27;19911;-69
2021/05/06 17:49:02;;;;;;;;;;;8.30;97.20;;;;;;5116189;28;19912;-69
2021/05/06 17:51:28;;;;;;;;;;;8.30;96.90;;;;;;5107624;28;20026;-69
2021/05/06 17:53:54;;;;;;;;;;;8.30;97.20;;;;;;5104794;28;19941;-69
2021/05/06 17:56:20;;;;;;;;;;;8.30;97.30;;;;;;5116510;28;19915;-69
2021/05/06 17:58:49;;;;;;;;;;;8.40;97.20;;;;;;5116625;28;19939;-68
2021/05/06 18:01:18;;;;;;;;;;;8.30;97.20;;;;;;5116560;28;20242;-69
2021/05/06 18:03:43;;;;;;;;;;;8.40;97.70;;;;;;5136710;27;19911;-69
2021/05/06 18:06:09;;;;;;;;;;;8.40;97.30;;;;;;5097263;27;20266;-69